createdAt,value
2022-09-20T00:01:30.014Z,1.30
2022-09-20T00:03:58.830Z,1.40
2022-09-20T00:06:29.891Z,1.40
2022-09-20T00:08:57.120Z,1.38
2022-09-20T00:11:28.980Z,1.23
2022-09-20T00:13:58.423Z,1.35
2022-09-20T00:16:31.290Z,1.35
2022-09-20T00:18:59.504Z,1.40
2022-09-20T00:21:28.917Z,1.38
2022-09-20T00:23:57.595Z,1.38
2022-09-20T00:26:26.010Z,1.40
2022-09-20T00:28:52.874Z,1.50
2022-09-20T00:31:19.635Z,1.45
2022-09-20T00:34:06.269Z,1.38
2022-09-20T00:36:33.014Z,1.30
2022-09-20T00:39:02.772Z,1.40
2022-09-20T00:41:31.771Z,1.50
2022-09-20T00:44:01.310Z,1.33
2022-09-20T00:46:34.760Z,1.23
2022-09-20T00:49:14.884Z,1.50
2022-09-20T00:51:46.941Z,1.58
2022-09-20T00:54:20.301Z,1.60
2022-09-20T00:56:48.486Z,1.45
2022-09-20T00:59:19.870Z,1.40
2022-09-20T01:01:52.254Z,1.45
2022-09-20T01:04:22.019Z,1.33
2022-09-20T01:06:51.558Z,1.40
2022-09-20T01:09:18.163Z,1.48
2022-09-20T01:11:46.375Z,1.50
2022-09-20T01:14:17.173Z,1.38
2022-09-20T01:16:44.290Z,1.50
2022-09-20T01:19:33.634Z,1.60
2022-09-20T01:22:06.931Z,1.60
2022-09-20T01:24:47.565Z,1.77
2022-09-20T01:27:43.245Z,1.60
2022-09-20T01:30:14.542Z,1.40
2022-09-20T01:32:43.991Z,1.50
2022-09-20T01:35:12.239Z,1.55
2022-09-20T01:37:38.721Z,1.67
2022-09-20T01:40:36.164Z,1.45
2022-09-20T01:43:29.313Z,1.67
2022-09-20T01:46:02.636Z,1.40
2022-09-20T01:48:40.086Z,1.60
2022-09-20T01:51:09.679Z,1.50
2022-09-20T01:54:03.747Z,1.60
2022-09-20T01:56:38.836Z,1.50
2022-09-20T01:59:24.167Z,1.57
2022-09-20T02:01:54.205Z,1.70
2022-09-20T02:04:26.749Z,1.40
2022-09-20T02:07:16.536Z,1.50
2022-09-20T02:10:01.160Z,1.50
2022-09-20T02:12:50.313Z,1.35
2022-09-20T02:15:54.386Z,1.30
2022-09-20T02:18:48.730Z,1.50
2022-09-20T02:21:35.571Z,1.88
2022-09-20T02:24:27.225Z,1.33
2022-09-20T02:27:28.810Z,1.50
2022-09-20T02:30:27.378Z,1.88
2022-09-20T02:33:18.108Z,1.50
2022-09-20T02:35:55.247Z,1.50
2022-09-20T02:38:59.117Z,1.52
2022-09-20T02:41:47.347Z,1.67
2022-09-20T02:44:38.693Z,2.95
2022-09-20T02:47:43.308Z,1.90
2022-09-20T02:50:38.491Z,1.58
2022-09-20T02:53:24.138Z,1.60
2022-09-20T02:56:04.775Z,1.57
2022-09-20T02:59:05.240Z,1.83
2022-09-20T03:01:50.509Z,1.60
2022-09-20T03:04:45.396Z,1.80
2022-09-20T03:07:56.362Z,2.00
2022-09-20T03:10:36.900Z,1.80
2022-09-20T03:13:35.152Z,1.50
2022-09-20T03:16:31.223Z,1.95
2022-09-20T03:19:15.552Z,2.17
2022-09-20T03:22:26.454Z,2.40
2022-09-20T03:25:24.366Z,1.95
2022-09-20T03:27:56.382Z,1.80
2022-09-20T03:30:53.544Z,3.45
2022-09-20T03:33:44.119Z,1.70
2022-09-20T03:36:28.366Z,1.70
2022-09-20T03:39:25.448Z,1.90
2022-09-20T03:42:17.655Z,1.70
2022-09-20T03:45:05.926Z,1.70
2022-09-20T03:47:35.131Z,1.60
2022-09-20T03:50:18.508Z,1.80
2022-09-20T03:52:55.753Z,1.70
2022-09-20T03:55:56.108Z,1.70
2022-09-20T03:58:29.106Z,1.70
2022-09-20T04:01:28.310Z,1.70
2022-09-20T04:04:12.515Z,1.70
2022-09-20T04:06:54.090Z,1.75
2022-09-20T04:09:43.836Z,1.58
2022-09-20T04:12:27.949Z,2.08
2022-09-20T04:15:20.977Z,1.63
2022-09-20T04:18:24.874Z,1.92
2022-09-20T04:21:22.915Z,1.90
2022-09-20T04:24:12.517Z,2.00
2022-09-20T04:26:47.174Z,1.50
2022-09-20T04:29:36.406Z,1.75
2022-09-20T04:32:10.521Z,2.33
2022-09-20T04:35:25.547Z,2.00
2022-09-20T04:37:53.627Z,1.85
2022-09-20T04:40:34.763Z,1.65
2022-09-20T04:43:07.404Z,1.90
2022-09-20T04:46:11.376Z,2.00
2022-09-20T04:49:00.914Z,1.83
2022-09-20T04:51:48.768Z,2.05
2022-09-20T04:54:53.789Z,1.92
2022-09-20T04:57:23.582Z,1.90
2022-09-20T05:00:05.479Z,2.05
2022-09-20T05:02:40.138Z,1.92
2022-09-20T05:05:25.135Z,1.92
2022-09-20T05:08:10.835Z,1.88
2022-09-20T05:10:49.235Z,2.03
2022-09-20T05:13:28.619Z,1.83
2022-09-20T05:16:24.011Z,1.95
2022-09-20T05:19:05.390Z,1.88
2022-09-20T05:21:50.660Z,1.90
2022-09-20T05:24:40.709Z,1.95
2022-09-20T05:27:19.721Z,1.90
2022-09-20T05:30:05.369Z,2.00
2022-09-20T05:32:52.011Z,1.77
2022-09-20T05:38:16.775Z,2.00
2022-09-20T05:41:07.661Z,1.80
2022-09-20T05:43:43.737Z,2.30
2022-09-20T05:46:22.332Z,2.28
2022-09-20T05:49:03.926Z,2.22
2022-09-20T05:52:05.703Z,1.98
2022-09-20T05:54:47.482Z,2.42
2022-09-20T05:57:37.208Z,2.60
2022-09-20T06:00:14.565Z,1.92
2022-09-20T06:02:41.129Z,2.25
2022-09-20T06:05:19.393Z,2.80
2022-09-20T06:08:12.875Z,1.90
2022-09-20T06:11:02.445Z,2.10
2022-09-20T06:14:00.728Z,2.20
2022-09-20T06:17:07.787Z,2.17
2022-09-20T06:19:45.733Z,1.80
2022-09-20T06:22:36.690Z,2.10
2022-09-20T06:25:26.809Z,1.80
2022-09-20T06:27:58.080Z,2.20
2022-09-20T06:30:27.227Z,2.05
2022-09-20T06:33:05.971Z,1.77
2022-09-20T06:35:42.956Z,1.90
2022-09-20T06:38:31.309Z,1.88
2022-09-20T06:41:01.011Z,2.00
2022-09-20T06:43:29.238Z,1.60
2022-09-20T06:45:58.111Z,1.98
2022-09-20T06:48:25.270Z,2.08
2022-09-20T06:50:52.417Z,2.10
2022-09-20T06:53:29.778Z,2.00
2022-09-20T06:55:57.529Z,2.00
2022-09-20T06:58:24.076Z,1.90
2022-09-20T07:00:50.897Z,1.80
2022-09-20T07:03:19.615Z,1.88
2022-09-20T07:05:46.498Z,2.00
2022-09-20T07:08:14.513Z,1.90
2022-09-20T07:10:41.560Z,2.10
2022-09-20T07:13:11.192Z,2.10
2022-09-20T07:15:38.822Z,2.05
2022-09-20T07:18:05.903Z,2.10
2022-09-20T07:20:32.853Z,2.45
2022-09-20T07:22:59.857Z,1.80
2022-09-20T07:25:26.484Z,2.20
2022-09-20T07:27:53.105Z,2.20
2022-09-20T07:30:20.341Z,1.58
2022-09-20T07:32:47.016Z,1.60
2022-09-20T07:35:13.899Z,1.50
2022-09-20T07:37:42.823Z,1.80
2022-09-20T07:40:11.354Z,1.65
2022-09-20T07:42:38.126Z,1.50
2022-09-20T07:45:05.230Z,1.65
2022-09-20T07:47:33.158Z,1.90
2022-09-20T07:49:59.774Z,1.80
2022-09-20T07:52:27.634Z,2.03
2022-09-20T07:54:54.428Z,1.88
2022-09-20T07:57:20.985Z,1.60
2022-09-20T07:59:47.616Z,1.63
2022-09-20T08:02:16.010Z,1.63
2022-09-20T08:04:43.351Z,1.60
2022-09-20T08:07:10.916Z,1.65
2022-09-20T08:09:37.483Z,1.67
2022-09-20T08:14:53.329Z,3.17
2022-09-20T08:17:20.011Z,2.00
2022-09-20T08:19:46.628Z,2.15
2022-09-20T08:22:14.836Z,1.90
2022-09-20T08:24:41.398Z,1.80
2022-09-20T08:27:09.046Z,2.03
2022-09-20T08:29:35.971Z,2.10
2022-09-20T08:32:03.321Z,3.00
2022-09-20T08:34:29.986Z,1.90
2022-09-20T08:36:56.968Z,2.95
2022-09-20T08:42:22.284Z,2.47
2022-09-20T08:45:00.185Z,2.00
2022-09-20T08:47:36.793Z,1.75
2022-09-20T08:50:11.588Z,1.80
2022-09-20T08:52:41.410Z,1.70
2022-09-20T08:55:17.943Z,1.85
2022-09-20T08:57:49.256Z,2.00
2022-09-20T09:00:21.988Z,1.70
2022-09-20T09:02:54.191Z,1.70
2022-09-20T09:05:43.579Z,1.50
2022-09-20T09:08:17.048Z,2.15
2022-09-20T09:10:51.404Z,1.80
2022-09-20T09:13:34.934Z,2.10
2022-09-20T09:16:09.935Z,1.80
2022-09-20T09:18:42.027Z,1.88
2022-09-20T09:21:10.509Z,2.10
2022-09-20T09:23:41.495Z,2.80
2022-09-20T09:26:17.622Z,2.22
2022-09-20T09:28:44.199Z,1.80
2022-09-20T09:31:23.376Z,1.73
2022-09-20T09:33:50.049Z,1.98
2022-09-20T09:36:23.602Z,2.25
2022-09-20T09:38:50.555Z,2.00
2022-09-20T09:41:29.897Z,1.90
2022-09-20T09:44:20.740Z,2.00
2022-09-20T09:46:50.188Z,1.92
2022-09-20T09:49:22.771Z,1.52
2022-09-20T09:52:26.901Z,1.42
2022-09-20T09:55:04.012Z,2.08
2022-09-20T09:57:55.048Z,1.63
2022-09-20T10:00:28.127Z,2.00
2022-09-20T10:03:18.084Z,2.05
2022-09-20T10:06:01.872Z,1.83
2022-09-20T10:08:40.938Z,1.80
2022-09-20T10:11:48.119Z,1.90
2022-09-20T10:14:24.052Z,2.05
2022-09-20T10:19:35.076Z,1.60
2022-09-20T10:22:20.452Z,1.70
2022-09-20T10:25:26.239Z,1.80
2022-09-20T10:28:39.171Z,1.67
2022-09-20T10:31:24.997Z,2.25
2022-09-20T10:34:07.574Z,2.60
2022-09-20T10:36:34.231Z,2.38
2022-09-20T10:39:11.015Z,2.20
2022-09-20T10:41:58.777Z,3.55
2022-09-20T10:44:47.208Z,6.00
2022-09-20T10:47:20.447Z,3.88
2022-09-20T10:50:09.219Z,6.43
2022-09-20T10:52:51.271Z,2.60
2022-09-20T10:55:47.481Z,3.53
2022-09-20T10:58:33.523Z,3.70
2022-09-20T11:01:08.700Z,2.03
2022-09-20T11:04:01.195Z,2.75
2022-09-20T11:06:44.239Z,1.80
2022-09-20T11:09:17.594Z,2.58
2022-09-20T11:11:49.484Z,3.28
2022-09-20T11:14:21.757Z,2.90
2022-09-20T11:16:53.440Z,2.10
2022-09-20T11:19:44.519Z,2.50
2022-09-20T11:22:34.822Z,2.33
2022-09-20T11:25:23.976Z,2.10
2022-09-20T11:28:02.281Z,1.80
2022-09-20T11:30:30.395Z,2.00
2022-09-20T11:32:59.774Z,2.50
2022-09-20T11:35:41.298Z,3.10
2022-09-20T11:38:22.418Z,2.97
2022-09-20T11:41:02.500Z,4.22
2022-09-20T11:43:31.162Z,3.80
2022-09-20T11:46:06.934Z,2.20
2022-09-20T11:48:46.539Z,1.80
2022-09-20T11:51:35.734Z,3.38
2022-09-20T11:54:20.038Z,1.40
2022-09-20T11:56:57.992Z,2.10
2022-09-20T11:59:35.386Z,2.92
2022-09-20T12:02:05.458Z,2.17
2022-09-20T12:04:35.712Z,1.80
2022-09-20T12:07:11.559Z,1.95
2022-09-20T12:09:43.735Z,3.50
2022-09-20T12:12:31.486Z,2.10
2022-09-20T12:15:01.180Z,2.00
2022-09-20T12:17:45.759Z,1.98
2022-09-20T12:20:42.575Z,5.50
2022-09-20T12:23:43.488Z,5.45
2022-09-20T12:26:22.048Z,5.80
2022-09-20T12:28:52.901Z,5.03
2022-09-20T12:31:21.566Z,1.50
2022-09-20T12:34:00.144Z,2.20
2022-09-20T12:36:29.690Z,6.45
2022-09-20T12:39:05.445Z,2.78
2022-09-20T12:42:10.557Z,5.68
2022-09-20T12:45:27.479Z,9.45
2022-09-20T12:47:56.085Z,7.07
2022-09-20T12:50:42.435Z,6.60
2022-09-20T12:53:16.828Z,3.13
2022-09-20T12:56:07.705Z,2.30
2022-09-20T12:58:51.534Z,1.92
2022-09-20T13:01:18.518Z,5.00
2022-09-20T13:03:50.517Z,8.55
2022-09-20T13:06:20.468Z,3.22
2022-09-20T13:09:04.986Z,7.25
2022-09-20T13:11:52.835Z,8.05
2022-09-20T13:14:29.007Z,7.47
2022-09-20T13:17:17.855Z,3.72
2022-09-20T13:19:49.951Z,2.35
2022-09-20T13:22:23.773Z,3.00
2022-09-20T13:24:55.230Z,2.00
2022-09-20T13:27:30.133Z,1.80
2022-09-20T13:30:32.682Z,1.95
2022-09-20T13:33:23.490Z,1.60
2022-09-20T13:35:58.232Z,1.65
2022-09-20T13:38:33.954Z,1.50
2022-09-20T13:41:09.112Z,2.10
2022-09-20T13:43:44.471Z,1.90
2022-09-20T13:46:22.427Z,1.67
2022-09-20T13:48:54.482Z,1.88
2022-09-20T13:51:28.430Z,1.58
2022-09-20T13:54:34.266Z,1.90
2022-09-20T13:57:04.179Z,1.98
2022-09-20T13:59:42.150Z,1.67
2022-09-20T14:02:22.474Z,2.00
2022-09-20T14:04:51.425Z,1.70
2022-09-20T14:07:18.181Z,2.20
2022-09-20T14:09:45.743Z,3.15
2022-09-20T14:12:14.134Z,3.80
2022-09-20T14:14:41.795Z,3.17
2022-09-20T14:17:09.886Z,2.45
2022-09-20T14:19:42.170Z,2.10
2022-09-20T14:22:18.361Z,2.70
2022-09-20T14:25:02.355Z,6.95
2022-09-20T14:27:31.236Z,6.40
2022-09-20T14:29:58.615Z,4.57
2022-09-20T14:32:34.369Z,3.83
2022-09-20T14:37:45.677Z,4.45
2022-09-20T14:40:30.518Z,5.53
2022-09-20T14:43:00.815Z,6.47
2022-09-20T14:45:35.879Z,5.45
2022-09-20T14:48:11.233Z,7.78
2022-09-20T14:51:16.381Z,13.13
2022-09-20T14:53:44.168Z,11.32
2022-09-20T14:56:12.955Z,14.55
2022-09-20T14:59:06.720Z,13.60
2022-09-20T15:01:35.955Z,21.17
2022-09-20T15:04:08.887Z,20.27
2022-09-20T15:06:39.030Z,21.67
2022-09-20T15:09:06.228Z,17.58
2022-09-20T15:11:32.990Z,12.98
2022-09-20T15:13:59.794Z,9.10
2022-09-20T15:16:28.645Z,7.25
2022-09-20T15:18:56.249Z,7.15
2022-09-20T15:21:22.843Z,7.07
2022-09-20T15:23:49.407Z,4.90
2022-09-20T15:26:16.798Z,4.85
2022-09-20T15:28:43.354Z,4.97
2022-09-20T15:31:10.491Z,4.85
2022-09-20T15:33:37.736Z,4.78
2022-09-20T15:36:04.934Z,5.00
2022-09-20T15:38:31.568Z,4.80
2022-09-20T15:41:01.751Z,5.65
2022-09-20T15:43:31.073Z,7.28
2022-09-20T15:46:16.766Z,7.10
2022-09-20T15:48:43.562Z,8.88
2022-09-20T15:51:12.208Z,10.88
2022-09-20T15:53:44.788Z,10.02
2022-09-20T15:56:21.140Z,7.43
2022-09-20T15:58:59.057Z,7.05
2022-09-20T16:01:33.741Z,10.95
2022-09-20T16:04:00.598Z,12.07
2022-09-20T16:06:27.249Z,15.65
2022-09-20T16:08:55.665Z,19.23
2022-09-20T16:11:23.795Z,27.83
2022-09-20T16:13:58.273Z,33.38
2022-09-20T16:16:26.972Z,35.28
2022-09-20T16:19:12.188Z,34.15
2022-09-20T16:21:40.605Z,29.83
2022-09-20T16:24:08.447Z,29.33
2022-09-20T16:26:36.193Z,27.20
2022-09-20T16:29:05.812Z,21.48
2022-09-20T16:31:41.081Z,22.40
2022-09-20T16:34:11.859Z,23.55
2022-09-20T16:36:38.922Z,20.88
2022-09-20T16:39:05.467Z,18.50
2022-09-20T16:41:32.505Z,15.10
2022-09-20T16:43:59.992Z,17.30
2022-09-20T16:46:28.481Z,17.80
2022-09-20T16:48:56.964Z,11.65
2022-09-20T16:51:26.085Z,7.90
2022-09-20T16:53:56.239Z,7.00
2022-09-20T16:56:27.562Z,6.65
2022-09-20T16:58:57.442Z,6.45
2022-09-20T17:01:24.239Z,7.13
2022-09-20T17:03:51.832Z,5.70
2022-09-20T17:06:19.279Z,5.00
2022-09-20T17:08:48.704Z,4.20
2022-09-20T17:11:40.890Z,4.45
2022-09-20T17:14:09.203Z,4.18
2022-09-20T17:16:38.322Z,4.28
2022-09-20T17:19:07.992Z,3.80
2022-09-20T17:21:37.253Z,3.67
2022-09-20T17:24:07.161Z,3.85
2022-09-20T17:26:40.385Z,3.95
2022-09-20T17:29:09.511Z,3.83
2022-09-20T17:31:39.146Z,3.92
2022-09-20T17:34:09.575Z,5.30
2022-09-20T17:36:44.390Z,4.80
2022-09-20T17:39:14.463Z,5.55
2022-09-20T17:41:42.948Z,5.47
2022-09-20T17:44:15.941Z,19.52
2022-09-20T17:46:44.659Z,12.35
2022-09-20T17:49:14.056Z,18.40
2022-09-20T17:51:55.969Z,13.90
2022-09-20T17:54:24.598Z,13.50
2022-09-20T17:56:53.884Z,12.27
2022-09-20T17:59:20.804Z,13.02
2022-09-20T18:01:50.015Z,11.90
2022-09-20T18:04:16.970Z,35.92
2022-09-20T18:06:51.318Z,30.60
2022-09-20T18:09:24.228Z,22.35
2022-09-20T18:11:53.101Z,21.40
2022-09-20T18:14:25.968Z,21.38
2022-09-20T18:16:55.121Z,21.00
2022-09-20T18:19:22.887Z,13.70
2022-09-20T18:21:50.071Z,9.00
2022-09-20T18:24:16.854Z,9.50
2022-09-20T18:26:44.275Z,9.43
2022-09-20T18:29:12.517Z,10.00
2022-09-20T18:31:46.931Z,9.00
2022-09-20T18:34:17.986Z,9.20
2022-09-20T18:36:52.600Z,8.98
2022-09-20T18:39:23.117Z,8.30
2022-09-20T18:41:50.557Z,8.30
2022-09-20T18:44:19.060Z,8.57
2022-09-20T18:46:46.398Z,7.97
2022-09-20T18:49:15.148Z,7.85
2022-09-20T18:51:43.329Z,7.55
2022-09-20T18:54:11.217Z,7.43
2022-09-20T18:56:39.968Z,8.68
2022-09-20T18:59:18.614Z,9.68
2022-09-20T19:01:58.401Z,8.88
2022-09-20T19:04:40.799Z,9.75
2022-09-20T19:07:29.871Z,9.55
2022-09-20T19:10:05.677Z,8.82
2022-09-20T19:12:51.775Z,9.80
2022-09-20T19:15:24.450Z,11.95
2022-09-20T19:18:14.819Z,10.30
2022-09-20T19:21:04.292Z,8.70
2022-09-20T19:23:41.050Z,8.48
2022-09-20T19:26:21.148Z,7.30
2022-09-20T19:28:55.116Z,7.30
2022-09-20T19:31:28.439Z,5.88
2022-09-20T19:33:56.910Z,6.88
2022-09-20T19:36:25.330Z,6.63
2022-09-20T19:39:10.184Z,6.70
2022-09-20T19:41:50.675Z,8.27
2022-09-20T19:44:36.045Z,8.15
2022-09-20T19:47:37.403Z,9.60
2022-09-20T19:50:44.804Z,10.23
2022-09-20T19:53:12.411Z,10.63
2022-09-20T19:55:39.749Z,9.35
2022-09-20T19:58:06.677Z,8.50
2022-09-20T20:00:33.576Z,7.57
2022-09-20T20:03:00.526Z,7.70
2022-09-20T20:05:29.255Z,7.40
2022-09-20T20:07:55.818Z,6.88
2022-09-20T20:10:40.693Z,7.50
2022-09-20T20:13:47.714Z,8.05
2022-09-20T20:16:30.889Z,8.23
2022-09-20T20:19:24.938Z,7.60
2022-09-20T20:22:03.343Z,7.80
2022-09-20T20:24:56.755Z,6.50
2022-09-20T20:27:26.230Z,6.75
2022-09-20T20:29:52.781Z,6.10
2022-09-20T20:32:19.346Z,6.88
2022-09-20T20:34:47.009Z,6.57
2022-09-20T20:37:13.998Z,6.45
2022-09-20T20:39:40.558Z,6.70
2022-09-20T20:42:08.554Z,6.25
2022-09-20T20:44:35.273Z,5.85
2022-09-20T20:47:08.120Z,6.43
2022-09-20T20:49:36.017Z,5.57
2022-09-20T20:52:04.919Z,6.28
2022-09-20T20:54:32.695Z,6.43
2022-09-20T20:57:01.831Z,6.70
2022-09-20T20:59:28.491Z,6.65
2022-09-20T21:01:55.104Z,7.20
2022-09-20T21:04:22.027Z,7.75
2022-09-20T21:06:50.182Z,7.82
2022-09-20T21:09:16.878Z,8.45
2022-09-20T21:11:44.550Z,8.93
2022-09-20T21:14:12.659Z,8.85
2022-09-20T21:16:45.148Z,8.50
2022-09-20T21:19:18.337Z,9.18
2022-09-20T21:21:47.851Z,9.07
2022-09-20T21:24:17.384Z,9.32
2022-09-20T21:26:46.333Z,8.45
2022-09-20T21:29:15.690Z,8.43
2022-09-20T21:31:44.691Z,8.73
2022-09-20T21:34:12.660Z,9.02
2022-09-20T21:36:41.593Z,9.38
2022-09-20T21:39:08.394Z,8.70
2022-09-20T21:41:38.341Z,8.75
2022-09-20T21:44:12.269Z,8.88
2022-09-20T21:46:41.991Z,9.15
2022-09-20T21:49:11.030Z,9.05
2022-09-20T21:51:38.783Z,8.02
2022-09-20T21:54:05.831Z,8.50
2022-09-20T21:56:35.368Z,8.68
2022-09-20T21:59:04.121Z,8.73
2022-09-20T22:01:36.182Z,8.93
2022-09-20T22:04:12.385Z,8.45
2022-09-20T22:09:16.024Z,7.93
2022-09-20T22:11:47.681Z,8.15
2022-09-20T22:14:17.462Z,9.27
2022-09-20T22:16:46.001Z,10.13
2022-09-20T22:19:15.106Z,9.68
2022-09-20T22:21:44.060Z,8.52
2022-09-20T22:24:12.442Z,8.95
2022-09-20T22:26:43.433Z,8.60
2022-09-20T22:29:10.367Z,9.32
2022-09-20T22:31:45.107Z,9.68
2022-09-20T22:34:17.607Z,9.57
2022-09-20T22:36:44.762Z,9.77
2022-09-20T22:39:13.364Z,10.82
2022-09-20T22:41:41.465Z,10.25
2022-09-20T22:44:09.172Z,10.45
2022-09-20T22:46:36.538Z,9.57
2022-09-20T22:49:07.355Z,10.43
2022-09-20T22:51:34.403Z,10.02
2022-09-20T22:54:05.483Z,10.60
2022-09-20T22:56:33.093Z,10.57
2022-09-20T22:59:11.517Z,10.88
2022-09-20T23:01:43.633Z,10.38
2022-09-20T23:04:19.738Z,10.45
2022-09-20T23:06:55.094Z,10.63
2022-09-20T23:09:27.914Z,9.68
2022-09-20T23:11:54.540Z,9.35
2022-09-20T23:14:22.165Z,9.82
2022-09-20T23:16:49.578Z,9.38
2022-09-20T23:19:16.748Z,9.35
2022-09-20T23:21:44.110Z,9.45
2022-09-20T23:24:13.347Z,8.95
2022-09-20T23:26:41.442Z,9.02
2022-09-20T23:29:12.974Z,9.15
2022-09-20T23:31:45.819Z,9.40
2022-09-20T23:34:13.664Z,9.65
2022-09-20T23:36:41.459Z,9.68
2022-09-20T23:39:10.302Z,9.57
2022-09-20T23:41:37.402Z,8.88
2022-09-20T23:44:10.279Z,9.30
2022-09-20T23:46:38.593Z,8.75
2022-09-20T23:49:06.536Z,8.48
2022-09-20T23:51:35.334Z,9.50
2022-09-20T23:54:02.766Z,9.27
2022-09-20T23:56:30.100Z,8.35
2022-09-20T23:58:56.743Z,8.35
